Terminal Aerodrome Forecast
Issued by NWS

Home | Current Version | Previous Version | Text Only | Print | Product List | Glossary On
Versions: 1 2 3 4 5 6 7 8 9 10 11 12 13 14
000
FTUS46 KHNX 152320
TAFMCE
TAF
KMCE 152320Z 1600/1624 VRB03KT 3SM HZ SKC
     FM161200 31011KT P6SM SKC
     FM161700 32019G25KT P6SM SKC=

USA.gov is the U.S. government's official web portal to all federal, state and local government web resources and services.